sensor_id;sensor_type;location;lat;lon;timestamp;pressure;altitude;pressure_sealevel;temperature;humidity
37170;BME280;23062;13.952;100.608;2024-02-23T00:04:20;1013.19;;;31.23;73.39
37170;BME280;23062;13.952;100.608;2024-02-23T00:09:02;1013.22;;;31.37;72.74
37170;BME280;23062;13.952;100.608;2024-02-23T00:13:46;1013.24;;;31.33;72.42
37170;BME280;23062;13.952;100.608;2024-02-23T00:18:22;1013.37;;;31.31;73.06
37170;BME280;23062;13.952;100.608;2024-02-23T00:23:00;1013.36;;;31.34;72.66
37170;BME280;23062;13.952;100.608;2024-02-23T00:27:35;1013.39;;;31.38;72.61
37170;BME280;23062;13.952;100.608;2024-02-23T00:32:22;1013.43;;;31.43;72.22
37170;BME280;23062;13.952;100.608;2024-02-23T00:37:06;1013.49;;;31.38;72.35
37170;BME280;23062;13.952;100.608;2024-02-23T00:41:49;1013.59;;;31.42;72.30
37170;BME280;23062;13.952;100.608;2024-02-23T00:46:24;1013.64;;;31.39;72.45
37170;BME280;23062;13.952;100.608;2024-02-23T00:51:07;1013.70;;;31.44;72.30
37170;BME280;23062;13.952;100.608;2024-02-23T00:55:49;1013.68;;;31.58;71.29
37170;BME280;23062;13.952;100.608;2024-02-23T01:00:26;1013.75;;;31.57;71.93
37170;BME280;23062;13.952;100.608;2024-02-23T01:05:09;1013.84;;;31.45;72.69
37170;BME280;23062;13.952;100.608;2024-02-23T01:09:54;1013.93;;;31.43;72.87
37170;BME280;23062;13.952;100.608;2024-02-23T01:14:30;1013.95;;;31.41;73.08
37170;BME280;23062;13.952;100.608;2024-02-23T01:19:14;1013.99;;;31.44;72.77
37170;BME280;23062;13.952;100.608;2024-02-23T01:23:59;1014.05;;;31.50;72.56
37170;BME280;23062;13.952;100.608;2024-02-23T01:28:43;1014.12;;;31.50;72.02
37170;BME280;23062;13.952;100.608;2024-02-23T01:33:20;1014.11;;;31.57;71.85
37170;BME280;23062;13.952;100.608;2024-02-23T01:37:55;1014.23;;;31.62;71.66
37170;BME280;23062;13.952;100.608;2024-02-23T01:42:38;1014.25;;;31.62;72.12
37170;BME280;23062;13.952;100.608;2024-02-23T01:47:15;1014.32;;;31.61;73.13
37170;BME280;23062;13.952;100.608;2024-02-23T01:51:55;1014.40;;;31.63;73.04
37170;BME280;23062;13.952;100.608;2024-02-23T01:56:32;1014.37;;;31.67;72.86
37170;BME280;23062;13.952;100.608;2024-02-23T02:01:10;1014.45;;;31.71;72.75
37170;BME280;23062;13.952;100.608;2024-02-23T02:05:55;1014.50;;;31.74;72.13
37170;BME280;23062;13.952;100.608;2024-02-23T02:10:32;1014.58;;;31.77;71.98
37170;BME280;23062;13.952;100.608;2024-02-23T02:15:17;1014.65;;;31.75;72.18
37170;BME280;23062;13.952;100.608;2024-02-23T02:19:57;1014.70;;;31.85;71.77
37170;BME280;23062;13.952;100.608;2024-02-23T02:24:41;1014.84;;;31.92;70.87
37170;BME280;23062;13.952;100.608;2024-02-23T02:29:25;1014.85;;;31.95;70.27
37170;BME280;23062;13.952;100.608;2024-02-23T02:34:10;1014.87;;;32.01;68.99
37170;BME280;23062;13.952;100.608;2024-02-23T02:38:55;1014.90;;;32.04;68.30
37170;BME280;23062;13.952;100.608;2024-02-23T02:43:32;1014.94;;;32.10;67.77
37170;BME280;23062;13.952;100.608;2024-02-23T02:48:09;1014.99;;;32.10;67.65
37170;BME280;23062;13.952;100.608;2024-02-23T02:52:46;1014.99;;;32.13;66.72
37170;BME280;23062;13.952;100.608;2024-02-23T02:57:33;1014.97;;;32.23;66.29
37170;BME280;23062;13.952;100.608;2024-02-23T03:02:10;1014.99;;;32.25;65.72
37170;BME280;23062;13.952;100.608;2024-02-23T03:06:54;1015.04;;;32.26;65.47
37170;BME280;23062;13.952;100.608;2024-02-23T03:11:38;1015.03;;;32.22;65.01
37170;BME280;23062;13.952;100.608;2024-02-23T03:16:17;1015.02;;;32.22;65.08
37170;BME280;23062;13.952;100.608;2024-02-23T03:21:03;1014.92;;;32.26;64.44
37170;BME280;23062;13.952;100.608;2024-02-23T03:25:44;1014.95;;;32.26;63.57
37170;BME280;23062;13.952;100.608;2024-02-23T03:30:27;1014.88;;;32.28;63.42
37170;BME280;23062;13.952;100.608;2024-02-23T03:35:12;1014.81;;;32.34;63.23
37170;BME280;23062;13.952;100.608;2024-02-23T03:39:49;1014.70;;;32.42;62.75
37170;BME280;23062;13.952;100.608;2024-02-23T03:44:33;1014.68;;;32.43;62.09
37170;BME280;23062;13.952;100.608;2024-02-23T03:49:11;1014.66;;;32.38;62.19
37170;BME280;23062;13.952;100.608;2024-02-23T03:53:47;1014.61;;;32.38;62.07
37170;BME280;23062;13.952;100.608;2024-02-23T03:58:31;1014.59;;;32.37;62.29
37170;BME280;23062;13.952;100.608;2024-02-23T04:03:06;1014.51;;;32.40;62.16
37170;BME280;23062;13.952;100.608;2024-02-23T04:07:42;1014.47;;;32.37;62.02
37170;BME280;23062;13.952;100.608;2024-02-23T04:12:28;1014.41;;;32.39;61.99
37170;BME280;23062;13.952;100.608;2024-02-23T04:17:04;1014.35;;;32.46;61.39
37170;BME280;23062;13.952;100.608;2024-02-23T04:21:50;1014.22;;;32.43;61.66
37170;BME280;23062;13.952;100.608;2024-02-23T04:26:33;1014.13;;;32.44;61.58
37170;BME280;23062;13.952;100.608;2024-02-23T04:31:18;1014.01;;;32.49;61.40
37170;BME280;23062;13.952;100.608;2024-02-23T04:36:05;1013.89;;;32.59;60.58
37170;BME280;23062;13.952;100.608;2024-02-23T04:40:53;1013.87;;;32.62;60.47
37170;BME280;23062;13.952;100.608;2024-02-23T04:45:36;1013.73;;;32.66;60.02
37170;BME280;23062;13.952;100.608;2024-02-23T04:50:15;1013.64;;;32.88;58.80
37170;BME280;23062;13.952;100.608;2024-02-23T04:54:54;1013.59;;;32.73;59.44
37170;BME280;23062;13.952;100.608;2024-02-23T04:59:35;1013.51;;;32.85;58.84
37170;BME280;23062;13.952;100.608;2024-02-23T05:04:19;1013.33;;;32.89;58.65
37170;BME280;23062;13.952;100.608;2024-02-23T05:08:55;1013.33;;;32.95;57.25
37170;BME280;23062;13.952;100.608;2024-02-23T05:13:35;1013.28;;;33.03;56.69
37170;BME280;23062;13.952;100.608;2024-02-23T05:18:16;1013.15;;;32.92;56.73
37170;BME280;23062;13.952;100.608;2024-02-23T05:23:00;1013.09;;;33.06;56.28
37170;BME280;23062;13.952;100.608;2024-02-23T05:27:40;1012.98;;;32.94;56.82
37170;BME280;23062;13.952;100.608;2024-02-23T05:32:23;1012.88;;;32.99;56.65
37170;BME280;23062;13.952;100.608;2024-02-23T05:37:14;1012.79;;;33.02;56.78
37170;BME280;23062;13.952;100.608;2024-02-23T05:41:52;1012.68;;;33.11;55.96
37170;BME280;23062;13.952;100.608;2024-02-23T05:46:28;1012.61;;;33.14;56.32
37170;BME280;23062;13.952;100.608;2024-02-23T05:51:09;1012.58;;;33.30;55.67
37170;BME280;23062;13.952;100.608;2024-02-23T05:55:54;1012.50;;;33.20;55.71
37170;BME280;23062;13.952;100.608;2024-02-23T06:00:39;1012.37;;;33.13;55.73
37170;BME280;23062;13.952;100.608;2024-02-23T06:05:23;1012.27;;;33.08;55.67
37170;BME280;23062;13.952;100.608;2024-02-23T06:10:04;1012.23;;;33.23;55.24
37170;BME280;23062;13.952;100.608;2024-02-23T06:14:50;1012.09;;;33.07;56.11
37170;BME280;23062;13.952;100.608;2024-02-23T06:19:30;1011.98;;;33.11;56.51
37170;BME280;23062;13.952;100.608;2024-02-23T06:24:12;1011.88;;;33.14;56.69
37170;BME280;23062;13.952;100.608;2024-02-23T06:28:57;1011.78;;;33.15;56.45
37170;BME280;23062;13.952;100.608;2024-02-23T06:33:42;1011.63;;;33.26;55.34
37170;BME280;23062;13.952;100.608;2024-02-23T06:38:17;1011.61;;;33.31;54.95
37170;BME280;23062;13.952;100.608;2024-02-23T06:42:55;1011.52;;;33.28;55.05
37170;BME280;23062;13.952;100.608;2024-02-23T06:47:33;1011.36;;;33.29;54.80
37170;BME280;23062;13.952;100.608;2024-02-23T06:52:14;1011.37;;;33.24;55.50
37170;BME280;23062;13.952;100.608;2024-02-23T06:56:59;1011.28;;;33.29;55.43
37170;BME280;23062;13.952;100.608;2024-02-23T07:01:50;1011.15;;;33.31;55.41
37170;BME280;23062;13.952;100.608;2024-02-23T07:06:27;1011.11;;;33.29;55.18
37170;BME280;23062;13.952;100.608;2024-02-23T07:11:05;1011.03;;;33.26;55.48
37170;BME280;23062;13.952;100.608;2024-02-23T07:15:43;1010.92;;;33.24;55.69
37170;BME280;23062;13.952;100.608;2024-02-23T07:20:26;1010.80;;;33.48;54.81
37170;BME280;23062;13.952;100.608;2024-02-23T07:25:03;1010.70;;;33.26;55.74
37170;BME280;23062;13.952;100.608;2024-02-23T07:29:41;1010.64;;;33.27;55.72
37170;BME280;23062;13.952;100.608;2024-02-23T07:34:23;1010.60;;;33.36;55.21
37170;BME280;23062;13.952;100.608;2024-02-23T07:39:00;1010.47;;;33.31;55.14
37170;BME280;23062;13.952;100.608;2024-02-23T07:43:46;1010.37;;;33.41;55.06
37170;BME280;23062;13.952;100.608;2024-02-23T07:48:24;1010.32;;;33.56;54.74
37170;BME280;23062;13.952;100.608;2024-02-23T07:53:06;1010.31;;;33.41;55.26
37170;BME280;23062;13.952;100.608;2024-02-23T07:57:50;1010.25;;;33.44;55.21
37170;BME280;23062;13.952;100.608;2024-02-23T08:02:37;1010.15;;;33.45;55.05
37170;BME280;23062;13.952;100.608;2024-02-23T08:07:23;1010.08;;;33.44;54.40
37170;BME280;23062;13.952;100.608;2024-02-23T08:12:00;1010.00;;;33.46;54.36
37170;BME280;23062;13.952;100.608;2024-02-23T08:16:44;1009.94;;;33.49;54.07
37170;BME280;23062;13.952;100.608;2024-02-23T08:21:23;1009.99;;;33.59;53.76
37170;BME280;23062;13.952;100.608;2024-02-23T08:26:07;1010.00;;;33.52;53.82
37170;BME280;23062;13.952;100.608;2024-02-23T08:30:50;1009.96;;;33.57;53.37
37170;BME280;23062;13.952;100.608;2024-02-23T08:35:27;1009.91;;;33.49;53.54
37170;BME280;23062;13.952;100.608;2024-02-23T08:40:03;1009.84;;;33.56;53.40
37170;BME280;23062;13.952;100.608;2024-02-23T08:44:40;1009.81;;;33.64;53.40
37170;BME280;23062;13.952;100.608;2024-02-23T08:49:24;1009.75;;;33.51;53.86
37170;BME280;23062;13.952;100.608;2024-02-23T08:54:01;1009.71;;;33.49;53.92
37170;BME280;23062;13.952;100.608;2024-02-23T08:58:48;1009.72;;;33.53;53.82
37170;BME280;23062;13.952;100.608;2024-02-23T09:03:27;1009.67;;;33.53;53.80
37170;BME280;23062;13.952;100.608;2024-02-23T09:08:11;1009.62;;;33.59;53.62
37170;BME280;23062;13.952;100.608;2024-02-23T09:12:56;1009.64;;;33.56;53.74
37170;BME280;23062;13.952;100.608;2024-02-23T09:17:32;1009.68;;;33.59;53.86
37170;BME280;23062;13.952;100.608;2024-02-23T09:22:16;1009.63;;;33.50;54.21
37170;BME280;23062;13.952;100.608;2024-02-23T09:27:00;1009.63;;;33.50;54.32
37170;BME280;23062;13.952;100.608;2024-02-23T09:31:45;1009.59;;;33.46;54.58
37170;BME280;23062;13.952;100.608;2024-02-23T09:36:27;1009.57;;;33.45;54.66
37170;BME280;23062;13.952;100.608;2024-02-23T09:41:13;1009.63;;;33.47;54.66
37170;BME280;23062;13.952;100.608;2024-02-23T09:45:52;1009.66;;;33.45;54.73
37170;BME280;23062;13.952;100.608;2024-02-23T09:50:34;1009.66;;;33.39;54.73
37170;BME280;23062;13.952;100.608;2024-02-23T09:55:12;1009.69;;;33.46;54.77
37170;BME280;23062;13.952;100.608;2024-02-23T09:59:54;1009.66;;;33.41;55.05
37170;BME280;23062;13.952;100.608;2024-02-23T10:04:35;1009.66;;;33.42;55.23
37170;BME280;23062;13.952;100.608;2024-02-23T10:09:26;1009.71;;;33.41;55.12
37170;BME280;23062;13.952;100.608;2024-02-23T10:14:15;1009.76;;;33.40;55.22
37170;BME280;23062;13.952;100.608;2024-02-23T10:19:02;1009.71;;;33.38;55.35
37170;BME280;23062;13.952;100.608;2024-02-23T10:23:55;1009.79;;;33.38;55.43
37170;BME280;23062;13.952;100.608;2024-02-23T10:28:34;1009.77;;;33.37;55.51
37170;BME280;23062;13.952;100.608;2024-02-23T10:33:10;1009.84;;;33.38;56.35
37170;BME280;23062;13.952;100.608;2024-02-23T10:37:48;1009.95;;;33.32;57.16
37170;BME280;23062;13.952;100.608;2024-02-23T10:42:28;1009.98;;;33.31;58.10
37170;BME280;23062;13.952;100.608;2024-02-23T10:47:15;1010.05;;;33.22;58.92
37170;BME280;23062;13.952;100.608;2024-02-23T10:52:05;1009.98;;;33.17;59.18
37170;BME280;23062;13.952;100.608;2024-02-23T10:56:50;1010.15;;;33.20;59.32
37170;BME280;23062;13.952;100.608;2024-02-23T11:01:35;1010.20;;;33.24;59.87
37170;BME280;23062;13.952;100.608;2024-02-23T11:06:32;1010.26;;;33.27;59.35
37170;BME280;23062;13.952;100.608;2024-02-23T11:11:15;1010.24;;;33.27;59.83
37170;BME280;23062;13.952;100.608;2024-02-23T11:16:03;1010.30;;;33.27;59.95
37170;BME280;23062;13.952;100.608;2024-02-23T11:20:59;1010.36;;;33.21;60.35
37170;BME280;23062;13.952;100.608;2024-02-23T11:25:58;1010.42;;;33.17;59.96
37170;BME280;23062;13.952;100.608;2024-02-23T11:30:38;1010.48;;;33.11;59.77
37170;BME280;23062;13.952;100.608;2024-02-23T11:35:25;1010.52;;;33.03;59.19
37170;BME280;23062;13.952;100.608;2024-02-23T11:40:01;1010.63;;;33.07;59.56
37170;BME280;23062;13.952;100.608;2024-02-23T11:44:46;1010.64;;;32.96;59.42
37170;BME280;23062;13.952;100.608;2024-02-23T11:49:30;1010.75;;;32.96;60.13
37170;BME280;23062;13.952;100.608;2024-02-23T11:54:14;1010.85;;;32.98;59.64
37170;BME280;23062;13.952;100.608;2024-02-23T11:59:09;1010.88;;;32.91;59.88
37170;BME280;23062;13.952;100.608;2024-02-23T12:03:50;1010.85;;;32.85;60.05
37170;BME280;23062;13.952;100.608;2024-02-23T12:08:32;1010.91;;;32.83;60.16
37170;BME280;23062;13.952;100.608;2024-02-23T12:13:27;1010.94;;;32.85;60.33
37170;BME280;23062;13.952;100.608;2024-02-23T12:18:18;1010.98;;;32.84;60.33
37170;BME280;23062;13.952;100.608;2024-02-23T12:23:01;1010.96;;;32.81;60.51
37170;BME280;23062;13.952;100.608;2024-02-23T12:27:54;1010.97;;;32.87;60.39
37170;BME280;23062;13.952;100.608;2024-02-23T12:33:07;1011.01;;;32.81;61.19
37170;BME280;23062;13.952;100.608;2024-02-23T12:37:55;1011.07;;;32.81;61.68
37170;BME280;23062;13.952;100.608;2024-02-23T12:42:41;1011.13;;;32.76;62.36
37170;BME280;23062;13.952;100.608;2024-02-23T12:47:31;1011.22;;;32.75;62.64
37170;BME280;23062;13.952;100.608;2024-02-23T12:52:10;1011.32;;;32.60;63.08
37170;BME280;23062;13.952;100.608;2024-02-23T12:56:51;1011.42;;;32.67;63.10
37170;BME280;23062;13.952;100.608;2024-02-23T13:01:34;1011.52;;;32.72;63.05
37170;BME280;23062;13.952;100.608;2024-02-23T13:06:19;1011.53;;;32.78;62.90
37170;BME280;23062;13.952;100.608;2024-02-23T13:11:06;1011.58;;;32.76;63.18
37170;BME280;23062;13.952;100.608;2024-02-23T13:15:55;1011.62;;;32.77;63.34
37170;BME280;23062;13.952;100.608;2024-02-23T13:20:45;1011.63;;;32.76;63.52
37170;BME280;23062;13.952;100.608;2024-02-23T13:25:33;1011.63;;;32.76;63.65
37170;BME280;23062;13.952;100.608;2024-02-23T13:30:21;1011.76;;;32.76;63.77
37170;BME280;23062;13.952;100.608;2024-02-23T13:35:06;1011.70;;;32.76;63.69
37170;BME280;23062;13.952;100.608;2024-02-23T13:44:41;1011.73;;;32.75;63.55
37170;BME280;23062;13.952;100.608;2024-02-23T13:49:22;1011.76;;;32.73;63.69
37170;BME280;23062;13.952;100.608;2024-02-23T13:54:04;1011.81;;;32.74;63.86
37170;BME280;23062;13.952;100.608;2024-02-23T14:05:17;1011.94;;;32.97;63.46
37170;BME280;23062;13.952;100.608;2024-02-23T14:15:30;1011.96;;;32.96;64.00
37170;BME280;23062;13.952;100.608;2024-02-23T14:20:08;1011.94;;;32.96;63.82
37170;BME280;23062;13.952;100.608;2024-02-23T14:24:52;1012.03;;;32.91;64.23
37170;BME280;23062;13.952;100.608;2024-02-23T14:34:23;1012.13;;;32.89;64.51
37170;BME280;23062;13.952;100.608;2024-02-23T14:39:07;1012.21;;;32.89;64.61
37170;BME280;23062;13.952;100.608;2024-02-23T14:43:54;1012.28;;;32.87;64.82
37170;BME280;23062;13.952;100.608;2024-02-23T14:48:31;1012.32;;;32.82;65.25
37170;BME280;23062;13.952;100.608;2024-02-23T14:53:21;1012.24;;;32.83;65.41
37170;BME280;23062;13.952;100.608;2024-02-23T14:57:58;1012.31;;;32.91;65.09
37170;BME280;23062;13.952;100.608;2024-02-23T15:02:44;1012.29;;;32.90;65.25
37170;BME280;23062;13.952;100.608;2024-02-23T15:07:23;1012.39;;;32.88;65.25
37170;BME280;23062;13.952;100.608;2024-02-23T15:12:08;1012.37;;;32.86;65.39
37170;BME280;23062;13.952;100.608;2024-02-23T15:21:32;1012.49;;;32.83;65.69
37170;BME280;23062;13.952;100.608;2024-02-23T15:26:09;1012.39;;;32.73;65.98
37170;BME280;23062;13.952;100.608;2024-02-23T15:30:47;1012.45;;;32.79;65.71
37170;BME280;23062;13.952;100.608;2024-02-23T15:35:24;1012.42;;;32.78;66.04
37170;BME280;23062;13.952;100.608;2024-02-23T15:40:09;1012.41;;;32.83;65.95
37170;BME280;23062;13.952;100.608;2024-02-23T15:44:52;1012.40;;;32.80;66.20
37170;BME280;23062;13.952;100.608;2024-02-23T15:49:36;1012.43;;;32.76;66.38
37170;BME280;23062;13.952;100.608;2024-02-23T15:54:20;1012.44;;;32.78;66.70
37170;BME280;23062;13.952;100.608;2024-02-23T15:59:04;1012.49;;;32.66;67.18
37170;BME280;23062;13.952;100.608;2024-02-23T16:03:50;1012.43;;;32.76;66.72
37170;BME280;23062;13.952;100.608;2024-02-23T16:08:43;1012.41;;;32.72;67.03
37170;BME280;23062;13.952;100.608;2024-02-23T16:13:29;1012.37;;;32.71;67.06
37170;BME280;23062;13.952;100.608;2024-02-23T16:18:13;1012.26;;;32.71;67.12
37170;BME280;23062;13.952;100.608;2024-02-23T16:22:58;1012.26;;;32.62;67.58
37170;BME280;23062;13.952;100.608;2024-02-23T16:27:43;1012.24;;;32.74;67.19
37170;BME280;23062;13.952;100.608;2024-02-23T16:32:44;1012.22;;;32.67;67.33
37170;BME280;23062;13.952;100.608;2024-02-23T16:37:29;1012.25;;;32.70;67.09
37170;BME280;23062;13.952;100.608;2024-02-23T16:42:04;1012.17;;;32.68;67.13
37170;BME280;23062;13.952;100.608;2024-02-23T16:46:48;1012.17;;;32.64;67.28
37170;BME280;23062;13.952;100.608;2024-02-23T16:51:33;1012.17;;;32.70;67.08
37170;BME280;23062;13.952;100.608;2024-02-23T16:56:10;1012.16;;;32.69;67.03
37170;BME280;23062;13.952;100.608;2024-02-23T17:01:03;1012.16;;;32.72;66.96
37170;BME280;23062;13.952;100.608;2024-02-23T17:05:48;1012.11;;;32.72;66.83
37170;BME280;23062;13.952;100.608;2024-02-23T17:10:30;1012.11;;;32.65;67.03
37170;BME280;23062;13.952;100.608;2024-02-23T17:15:16;1012.08;;;32.61;67.04
37170;BME280;23062;13.952;100.608;2024-02-23T17:20:02;1012.06;;;32.61;66.92
37170;BME280;23062;13.952;100.608;2024-02-23T17:24:47;1012.05;;;32.68;66.63
37170;BME280;23062;13.952;100.608;2024-02-23T17:29:33;1012.04;;;32.63;66.86
37170;BME280;23062;13.952;100.608;2024-02-23T17:34:16;1011.97;;;32.60;67.01
37170;BME280;23062;13.952;100.608;2024-02-23T17:39:00;1012.02;;;32.61;66.91
37170;BME280;23062;13.952;100.608;2024-02-23T17:43:47;1011.85;;;32.57;66.92
37170;BME280;23062;13.952;100.608;2024-02-23T17:48:32;1011.86;;;32.58;66.89
37170;BME280;23062;13.952;100.608;2024-02-23T17:53:18;1011.91;;;32.54;67.12
37170;BME280;23062;13.952;100.608;2024-02-23T17:58:03;1011.92;;;32.53;67.23
37170;BME280;23062;13.952;100.608;2024-02-23T18:02:40;1011.91;;;32.54;67.28
37170;BME280;23062;13.952;100.608;2024-02-23T18:07:31;1011.85;;;32.53;67.33
37170;BME280;23062;13.952;100.608;2024-02-23T18:12:16;1011.83;;;32.57;67.08
37170;BME280;23062;13.952;100.608;2024-02-23T18:17:01;1011.78;;;32.49;67.56
37170;BME280;23062;13.952;100.608;2024-02-23T18:21:44;1011.79;;;32.55;67.25
37170;BME280;23062;13.952;100.608;2024-02-23T18:26:27;1011.76;;;32.56;67.28
37170;BME280;23062;13.952;100.608;2024-02-23T18:32:26;1011.73;;;32.58;67.04
37170;BME280;23062;13.952;100.608;2024-02-23T18:37:26;1011.73;;;32.53;67.29
37170;BME280;23062;13.952;100.608;2024-02-23T18:42:03;1011.71;;;32.55;67.11
37170;BME280;23062;13.952;100.608;2024-02-23T18:46:40;1011.68;;;32.52;67.14
37170;BME280;23062;13.952;100.608;2024-02-23T18:51:25;1011.68;;;32.53;67.10
37170;BME280;23062;13.952;100.608;2024-02-23T18:56:06;1011.63;;;32.49;67.23
37170;BME280;23062;13.952;100.608;2024-02-23T19:00:47;1011.61;;;32.51;66.98
37170;BME280;23062;13.952;100.608;2024-02-23T19:05:38;1011.50;;;32.49;67.13
37170;BME280;23062;13.952;100.608;2024-02-23T19:10:27;1011.49;;;32.45;67.23
37170;BME280;23062;13.952;100.608;2024-02-23T19:15:13;1011.52;;;32.48;66.87
37170;BME280;23062;13.952;100.608;2024-02-23T19:19:57;1011.50;;;32.49;66.81
37170;BME280;23062;13.952;100.608;2024-02-23T19:24:41;1011.42;;;32.44;66.76
37170;BME280;23062;13.952;100.608;2024-02-23T19:29:31;1011.37;;;32.44;66.88
37170;BME280;23062;13.952;100.608;2024-02-23T19:34:08;1011.36;;;32.47;66.75
37170;BME280;23062;13.952;100.608;2024-02-23T19:38:46;1011.35;;;32.51;66.43
37170;BME280;23062;13.952;100.608;2024-02-23T19:43:32;1011.38;;;32.36;67.07
37170;BME280;23062;13.952;100.608;2024-02-23T19:48:09;1011.33;;;32.44;66.54
37170;BME280;23062;13.952;100.608;2024-02-23T19:52:54;1011.35;;;32.37;67.09
37170;BME280;23062;13.952;100.608;2024-02-23T19:57:31;1011.39;;;32.47;66.58
37170;BME280;23062;13.952;100.608;2024-02-23T20:11:57;1011.31;;;32.43;66.61
37170;BME280;23062;13.952;100.608;2024-02-23T20:23:31;1011.34;;;32.49;66.32
37170;BME280;23062;13.952;100.608;2024-02-23T20:28:14;1011.34;;;32.40;66.62
37170;BME280;23062;13.952;100.608;2024-02-23T20:32:52;1011.34;;;32.40;66.45
37170;BME280;23062;13.952;100.608;2024-02-23T20:37:53;1011.42;;;32.42;66.28
37170;BME280;23062;13.952;100.608;2024-02-23T20:42:28;1011.42;;;32.40;66.58
37170;BME280;23062;13.952;100.608;2024-02-23T20:47:05;1011.41;;;32.41;66.53
37170;BME280;23062;13.952;100.608;2024-02-23T20:51:41;1011.44;;;31.98;68.46
37170;BME280;23062;13.952;100.608;2024-02-23T20:56:21;1011.39;;;31.98;68.60
37170;BME280;23062;13.952;100.608;2024-02-23T21:01:09;1011.38;;;31.97;68.62
37170;BME280;23062;13.952;100.608;2024-02-23T21:05:52;1011.39;;;31.96;68.74
37170;BME280;23062;13.952;100.608;2024-02-23T21:10:36;1011.40;;;31.96;68.75
37170;BME280;23062;13.952;100.608;2024-02-23T21:15:21;1011.45;;;31.92;68.87
37170;BME280;23062;13.952;100.608;2024-02-23T21:20:05;1011.42;;;31.94;68.82
37170;BME280;23062;13.952;100.608;2024-02-23T21:24:41;1011.40;;;31.95;68.78
37170;BME280;23062;13.952;100.608;2024-02-23T21:29:24;1011.44;;;31.97;68.76
37170;BME280;23062;13.952;100.608;2024-02-23T21:34:03;1011.48;;;31.94;68.96
37170;BME280;23062;13.952;100.608;2024-02-23T21:38:41;1011.55;;;31.94;69.00
37170;BME280;23062;13.952;100.608;2024-02-23T21:43:32;1011.53;;;31.95;69.02
37170;BME280;23062;13.952;100.608;2024-02-23T21:48:18;1011.50;;;31.92;69.17
37170;BME280;23062;13.952;100.608;2024-02-23T21:53:02;1011.52;;;31.92;69.20
37170;BME280;23062;13.952;100.608;2024-02-23T21:57:43;1011.62;;;31.92;69.21
37170;BME280;23062;13.952;100.608;2024-02-23T22:02:25;1011.68;;;31.77;69.80
37170;BME280;23062;13.952;100.608;2024-02-23T22:07:10;1011.73;;;31.75;69.83
37170;BME280;23062;13.952;100.608;2024-02-23T22:11:47;1011.77;;;31.72;69.91
37170;BME280;23062;13.952;100.608;2024-02-23T22:16:29;1011.72;;;31.64;70.30
37170;BME280;23062;13.952;100.608;2024-02-23T22:21:12;1011.73;;;31.65;70.05
37170;BME280;23062;13.952;100.608;2024-02-23T22:26:32;1011.74;;;31.60;70.14
37170;BME280;23062;13.952;100.608;2024-02-23T22:31:12;1011.83;;;31.64;70.12
37170;BME280;23062;13.952;100.608;2024-02-23T22:35:55;1011.84;;;31.57;70.53
37170;BME280;23062;13.952;100.608;2024-02-23T22:40:39;1011.86;;;31.53;70.79
37170;BME280;23062;13.952;100.608;2024-02-23T22:45:15;1011.97;;;31.57;70.69
37170;BME280;23062;13.952;100.608;2024-02-23T22:49:53;1012.01;;;31.56;70.63
37170;BME280;23062;13.952;100.608;2024-02-23T22:54:29;1012.11;;;31.54;70.60
37170;BME280;23062;13.952;100.608;2024-02-23T22:59:05;1012.26;;;31.51;70.89
37170;BME280;23062;13.952;100.608;2024-02-23T23:03:53;1012.36;;;31.46;71.04
37170;BME280;23062;13.952;100.608;2024-02-23T23:08:38;1012.44;;;31.52;70.74
37170;BME280;23062;13.952;100.608;2024-02-23T23:13:22;1012.45;;;31.51;70.66
37170;BME280;23062;13.952;100.608;2024-02-23T23:17:59;1012.47;;;31.45;71.01
37170;BME280;23062;13.952;100.608;2024-02-23T23:22:44;1012.59;;;31.46;71.13
37170;BME280;23062;13.952;100.608;2024-02-23T23:27:29;1012.66;;;31.43;71.70
37170;BME280;23062;13.952;100.608;2024-02-23T23:32:13;1012.68;;;31.53;72.81
37170;BME280;23062;13.952;100.608;2024-02-23T23:36:57;1012.80;;;31.46;73.16
37170;BME280;23062;13.952;100.608;2024-02-23T23:41:44;1012.83;;;31.43;72.91
37170;BME280;23062;13.952;100.608;2024-02-23T23:46:30;1012.93;;;31.40;72.92
37170;BME280;23062;13.952;100.608;2024-02-23T23:51:07;1012.99;;;31.44;73.15
37170;BME280;23062;13.952;100.608;2024-02-23T23:55:51;1013.06;;;31.42;73.19
